Latest Weather Observations for Thredbo Top Station

IDN60901

Issued at 1:11 pm EDT Wednesday 16 January 2019 (issued every 10 minutes, with the page automatically refreshed every 10 minutes)

About weather observations | Map of Canberra area stations | Latest observations for Canberra area | Other Formats
Station Details ID: 071032 Name: THREDBO AWS Lat: -36.49 Lon: 148.29 Height: 1957.0 m
Data from the previous 72 hours. | See also: Recent months at Thredbo Top Station
Date/Time
EDT
Temp
°C
App
Temp
°C
Dew
Point
°C
Rel
Hum
%
Delta-T
°C
Wind Press
QNH
hPa
Press
MSL
hPa
Rain since
9am
mm
Dir  Spd
km/h
Gust
km/h
Spd
kts
Gust
kts
16/01:00pm 26.0 22.7 6.6 29 11.1 WNW 13 22 7 12 1025.6 1016.9 0.0
16/12:30pm 25.5 21.7 4.0 25 11.8 NW 13 20 7 11 1025.6 1016.9 0.0
16/12:00pm 25.5 21.4 4.6 26 11.5 NW 15 30 8 16 1025.8 1017.2 0.0
16/11:30am 24.7 21.3 6.0 30 10.5 WNW 13 22 7 12 1025.7 1017.1 0.0
16/11:00am 24.1 20.4 4.5 28 10.7 W 13 20 7 11 1025.8 1017.2 0.0
16/10:30am 24.4 20.3 2.5 24 11.6 W 13 22 7 12 1025.9 1017.3 0.0
16/10:00am 24.3 21.3 4.1 27 11.0 WNW 9 19 5 10 1025.9 1017.3 0.0
16/09:30am 24.0 21.1 4.4 28 10.7 W 9 17 5 9 1025.9 1017.3 0.0
16/09:00am 22.6 18.7 1.0 24 11.0 WSW 11 17 6 9 1026.0 1017.4 0.0
16/08:30am 22.1 18.2 3.3 29 10.0 W 13 17 7 9 1025.9 1017.3 0.0
16/08:00am 21.7 18.1 5.2 34 9.0 WNW 13 19 7 10 1025.6 1016.9 0.0
16/07:30am 20.5 16.4 4.1 34 8.7 WNW 15 17 8 9 1025.2 1016.6 0.0
16/07:00am 18.9 14.3 3.5 36 8.0 WNW 17 19 9 10 1024.8 1016.2 0.0
16/06:30am 17.0 12.0 3.7 41 6.9 WNW 19 22 10 12 1024.3 1015.7 0.0
16/06:00am 16.5 11.4 3.2 41 6.8 WNW 19 20 10 11 1024.2 1015.6 0.0
16/05:30am 16.4 11.3 3.1 41 6.8 WNW 19 20 10 11 1024.1 1015.4 0.0
16/05:00am 16.6 11.6 3.7 42 6.6 WNW 19 20 10 11 1024.0 1015.3 0.0
16/04:30am 15.8 11.5 5.1 49 5.6 NW 17 20 9 11 1024.0 1015.3 0.0
16/04:00am 14.1 9.9 5.5 56 4.5 NW 17 20 9 11 1024.0 1015.3 0.0
16/03:30am 14.4 9.8 6.7 60 4.2 NNW 20 26 11 14 1023.9 1015.2 0.0
16/03:00am 15.4 11.3 6.2 54 4.9 NW 17 19 9 10 1024.2 1015.6 0.0
16/02:30am 17.2 13.1 4.2 42 6.8 WNW 15 17 8 9 1024.3 1015.7 0.0
16/02:00am 15.4 11.8 4.8 49 5.5 NW 13 17 7 9 1024.5 1015.8 0.0
16/01:30am 14.6 11.6 7.9 64 3.7 NW 13 17 7 9 1024.8 1016.2 0.0
16/01:00am 15.2 11.6 10.4 73 2.8 NNW 20 20 11 11 1025.1 1016.4 0.0
16/12:30am 14.0 12.1 10.4 79 2.1 NNW 11 15 6 8 1025.0 1016.3 0.0
16/12:00am 13.5 11.0 9.7 78 2.2 NNW 13 15 7 8 1025.1 1016.4 0.0
 
Date/Time
EDT
Temp
°C
App
Temp
°C
Dew
Point
°C
Rel
Hum
%
Delta-T
°C
Wind Press
QNH
hPa
Press
MSL
hPa
Rain since
9am
mm
Dir  Spd
km/h
Gust
km/h
Spd
kts
Gust
kts
15/11:30pm 13.6 10.9 9.1 74 2.5 NNW 13 15 7 8 1025.2 1016.6 0.0
15/11:00pm 14.4 12.3 8.4 67 3.3 N 9 15 5 8 1025.3 1016.7 0.0
15/10:30pm 16.8 15.6 8.0 56 4.9 NNW 4 9 2 5 1025.6 1016.9 0.0
15/10:00pm 18.9 17.5 7.4 47 6.4 E 4 7 2 4 1025.8 1017.2 0.0
15/09:30pm 19.6 16.7 2.5 32 8.8 SW 7 9 4 5 1025.7 1017.1 0.0
15/09:00pm 20.0 17.4 4.1 35 8.4 WSW 7 11 4 6 1025.6 1016.9 0.0
15/08:30pm 20.1 16.1 2.9 32 8.9 WSW 13 17 7 9 1025.3 1016.7 0.0
15/08:00pm 20.9 17.6 4.5 34 8.8 WSW 11 15 6 8 1025.1 1016.4 0.0
15/07:30pm 21.4 18.3 5.7 36 8.6 WSW 11 17 6 9 1025.0 1016.3 0.0
15/07:00pm 22.9 19.3 6.6 35 9.2 W 15 24 8 13 1024.8 1016.2 0.0
15/06:30pm 22.7 17.3 6.5 35 9.1 W 24 33 13 18 1024.5 1015.8 0.0
15/06:00pm 24.2 18.7 6.0 31 10.2 W 24 35 13 19 1024.2 1015.6 0.0
15/05:30pm 23.4 18.3 5.8 32 9.8 W 22 33 12 18 1024.2 1015.6 0.0
15/05:00pm 24.1 19.1 6.4 32 10.0 WNW 22 35 12 19 1024.2 1015.6 0.0
15/04:30pm 24.8 19.8 7.9 34 9.8 WNW 24 37 13 20 1024.2 1015.6 0.0
15/04:00pm 23.3 18.6 7.8 37 8.9 W 22 33 12 18 1024.5 1015.8 0.0
15/03:30pm 22.3 18.5 9.8 45 7.4 NW 20 32 11 17 1024.5 1015.8 0.0
15/03:00pm 23.5 18.8 10.6 44 7.8 NW 26 41 14 22 1024.1 1015.4 0.0
15/02:30pm 23.9 17.8 10.6 43 8.1 NW 33 48 18 26 1024.3 1015.7 0.0
15/02:13pm 22.4 16.4 10.2 46 7.3 NW 32 52 17 28 1024.0 1015.3 0.0
15/02:00pm 22.6 16.3 9.0 42 8.0 NW 32 43 17 23 1024.3 1015.7 0.0
15/01:30pm 22.7 16.6 8.4 40 8.3 NW 30 44 16 24 1024.3 1015.7 0.0
15/01:00pm 21.9 15.2 9.8 46 7.2 NW 35 50 19 27 1024.6 1015.9 0.0
15/12:40pm 23.4 17.8 10.1 43 8.0 WNW 30 50 16 27 1024.6 1015.9 0.0
15/12:30pm 23.5 19.2 11.9 48 7.2 WNW 26 43 14 23 1025.0 1016.3 0.0
15/12:00pm 23.5 18.5 10.9 45 7.6 NW 28 41 15 22 1025.1 1016.4 0.0
15/11:30am 23.2 19.2 9.2 41 8.3 W 20 33 11 18 1025.1 1016.4 0.0
15/11:00am 23.0 18.9 10.1 44 7.7 W 22 35 12 19 1025.1 1016.4 0.0
15/10:30am 22.2 16.6 10.0 46 7.3 WNW 30 44 16 24 1025.0 1016.3 0.0
15/10:00am 22.2 16.3 10.4 47 7.1 NW 32 46 17 25 1024.8 1016.2 0.0
15/09:30am 21.9 15.3 11.3 51 6.4 NW 37 50 20 27 1025.0 1016.3 0.0
15/09:00am 21.1 12.0 10.0 49 6.6 NW 48 59 26 32 1024.3 1015.7 0.0
15/08:30am 20.6 13.3 10.1 51 6.2 NW 39 52 21 28 1024.3 1015.7 0.0
15/08:00am 20.2 11.9 9.5 50 6.2 NW 43 54 23 29 1024.1 1015.4 0.0
15/07:30am 19.6 12.0 9.2 51 6.0 NW 39 52 21 28 1024.1 1015.4 0.0
15/07:00am 19.5 11.8 8.8 50 6.2 NW 39 54 21 29 1023.9 1015.2 0.0
15/06:30am 18.6 11.2 8.3 51 5.9 NW 37 46 20 25 1023.5 1014.8 0.0
15/06:00am 18.4 11.9 8.1 51 5.8 NW 32 41 17 22 1023.5 1014.8 0.0
15/05:30am 19.0 13.2 7.8 48 6.3 NW 28 37 15 20 1023.6 1014.9 0.0
15/05:00am 18.5 13.5 7.9 50 6.0 NW 24 33 13 18 1023.6 1014.9 0.0
15/04:30am 18.3 13.4 8.6 53 5.5 NW 24 33 13 18 1023.6 1014.9 0.0
15/04:00am 17.8 13.8 9.2 57 4.9 NW 20 26 11 14 1023.7 1015.1 0.0
15/03:30am 15.9 11.4 10.0 68 3.4 NNW 24 28 13 15 1024.0 1015.3 0.0
15/03:00am 15.6 11.0 9.7 68 3.4 NNW 24 28 13 15 1024.6 1015.9 0.0
15/02:30am 14.8 10.6 9.8 72 2.9 NNW 22 24 12 13 1025.0 1016.3 0.0
15/02:00am 13.8 10.2 10.4 80 2.0 NNW 20 22 11 12 1025.3 1016.7 0.0
15/01:30am 14.4 10.8 10.4 77 2.3 N 20 22 11 12 1025.6 1016.9 0.0
15/01:00am 15.9 12.6 10.9 72 2.9 NNW 19 20 10 11 1025.7 1017.1 0.0
15/12:30am 14.1 10.6 10.1 77 2.3 N 19 20 10 11 1025.9 1017.3 0.0
15/12:00am 15.9 13.2 10.2 69 3.3 N 15 19 8 10 1026.0 1017.4 0.0
 
Date/Time
EDT
Temp
°C
App
Temp
°C
Dew
Point
°C
Rel
Hum
%
Delta-T
°C
Wind Press
QNH
hPa
Press
MSL
hPa
Rain since
9am
mm
Dir  Spd
km/h
Gust
km/h
Spd
kts
Gust
kts
14/11:30pm 15.5 13.9 10.1 70 3.1 NW 9 13 5 7 1026.3 1017.7 0.0
14/11:00pm 18.0 16.8 10.4 61 4.5 SW 7 7 4 4 1026.4 1017.8 0.0
14/10:30pm 17.9 16.3 10.3 61 4.5 WSW 9 11 5 6 1026.4 1017.8 0.0
14/10:00pm 18.6 17.1 10.7 60 4.7 SW 9 11 5 6 1026.5 1018.0 0.0
14/09:30pm 18.2 16.2 10.3 60 4.6 SW 11 11 6 6 1026.4 1017.8 0.0
14/09:00pm 19.0 17.1 10.6 58 5.0 SW 11 13 6 7 1026.2 1017.6 0.0
14/08:30pm 19.6 18.6 10.9 57 5.2 WSW 7 13 4 7 1025.9 1017.3 0.0
14/08:00pm 20.2 18.0 10.9 55 5.6 W 13 19 7 10 1025.8 1017.2 0.0
14/07:30pm 21.1 18.3 11.2 53 6.0 WNW 17 22 9 12 1025.7 1017.1 0.0
14/07:00pm 21.5 18.2 11.5 53 6.1 WNW 20 33 11 18 1025.4 1016.8 0.0
14/06:30pm 22.0 18.0 11.7 52 6.3 WNW 24 39 13 21 1025.1 1016.4 0.0
14/06:00pm 22.1 18.7 12.6 55 5.9 NW 22 39 12 21 1024.8 1016.2 0.0
14/05:30pm 21.9 18.1 12.5 55 5.8 NW 24 41 13 22 1024.8 1016.2 0.0
14/05:00pm 22.0 17.5 12.5 54 5.9 NW 28 39 15 21 1025.0 1016.3 0.0
14/04:30pm 22.0 16.6 12.3 54 6.0 NW 32 44 17 24 1025.1 1016.4 0.0
14/04:00pm 21.4 15.1 12.3 56 5.6 NNW 37 52 20 28 1024.8 1016.2 0.0
14/03:30pm 21.4 15.2 12.8 58 5.3 NNW 37 56 20 30 1025.2 1016.6 0.0
14/03:29pm 21.1 14.9 12.5 58 5.3 NW 37 56 20 30 1025.0 1016.3 0.0
14/03:00pm 21.3 14.6 12.2 56 5.6 NNW 39 56 21 30 1025.1 1016.4 0.0
14/02:47pm 21.0 14.7 12.4 58 5.3 NNW 37 63 20 34 1025.0 1016.3 0.0
14/02:30pm 20.9 14.0 12.8 60 5.0 NNW 41 56 22 30 1025.0 1016.3 0.0
14/02:00pm 20.9 15.0 12.3 58 5.3 NW 35 50 19 27 1025.1 1016.4 0.0
14/01:49pm 21.3 15.4 11.1 52 6.2 NW 33 52 18 28 1025.3 1016.7 0.0
14/01:30pm 21.5 15.6 10.3 49 6.7 NW 32 48 17 26 1025.1 1016.4 0.0
14/01:00pm 21.9 16.2 11.9 53 6.1 NW 33 50 18 27 1025.6 1016.9 0.0
14/12:30pm 20.3 14.2 11.8 58 5.2 NNW 35 50 19 27 1025.6 1016.9 0.0
14/12:21pm 20.2 13.9 12.4 61 4.8 NNW 37 56 20 30 1025.8 1017.2 0.0
14/12:00pm 19.5 12.0 12.8 65 4.1 NNW 44 59 24 32 1025.6 1016.9 0.0
14/11:33am 18.8 11.4 12.5 67 3.9 NNW 43 61 23 33 1025.7 1017.1 0.0
14/11:30am 18.8 11.1 12.1 65 4.1 NNW 44 61 24 33 1025.8 1017.2 0.0
14/11:00am 18.9 9.9 11.7 63 4.3 NNW 50 69 27 37 1025.6 1016.9 0.0
14/10:30am 18.4 7.8 10.8 61 4.5 NNW 57 78 31 42 1025.1 1016.4 0.0
14/10:00am 18.8 8.2 10.6 59 4.8 NNW 57 76 31 41 1025.3 1016.7 0.0
14/09:33am 18.4 7.4 10.5 60 4.7 NW 59 78 32 42 1025.1 1016.4 0.0
14/09:30am 18.2 6.7 10.3 60 4.6 NNW 61 78 33 42 1024.8 1016.2 0.0
14/09:07am 18.7 7.2 10.3 58 5.0 NNW 61 80 33 43 1025.1 1016.4 0.0
14/09:00am 18.6 6.7 9.9 57 5.1 NW 63 80 34 43 1024.8 1016.2 0.0
14/08:35am 18.8 6.9 8.5 51 5.9 NNW 61 83 33 45 1024.7 1016.1 0.0
14/08:30am 18.6 7.1 8.6 52 5.7 NNW 59 74 32 40 1025.0 1016.3 0.0
14/08:17am 18.8 7.3 8.7 52 5.8 NNW 59 78 32 42 1024.7 1016.1 0.0
14/08:00am 18.8 6.9 8.7 52 5.8 NW 61 76 33 41 1024.3 1015.7 0.0
14/07:30am 18.7 6.9 8.9 53 5.6 NNW 61 74 33 40 1024.5 1015.8 0.0
14/07:00am 18.6 6.4 8.8 53 5.6 NNW 63 76 34 41 1024.2 1015.6 0.0
14/06:30am 18.1 6.0 9.2 56 5.1 NW 63 82 34 44 1023.6 1014.9 0.0
14/06:28am 18.3 6.1 9.1 55 5.3 NW 63 82 34 44 1023.7 1015.1 0.0
14/06:00am 18.1 5.5 8.9 55 5.3 NNW 65 76 35 41 1023.4 1014.7 0.0
14/05:30am 17.9 7.0 9.5 58 4.9 NW 57 70 31 38 1023.9 1015.2 0.0
14/05:00am 17.9 7.6 9.5 58 4.9 NNW 54 72 29 39 1023.7 1015.1 0.0
14/04:51am 17.8 8.2 9.4 58 4.9 NW 50 69 27 37 1023.9 1015.2 0.0
14/04:30am 17.7 8.8 9.3 58 4.8 NW 46 57 25 31 1024.1 1015.4 0.0
14/04:00am 17.5 8.8 9.9 61 4.4 NNW 46 56 25 30 1024.6 1015.9 0.0
14/03:30am 17.5 8.8 10.1 62 4.3 NNW 46 57 25 31 1024.6 1015.9 0.0
14/03:00am 17.2 9.5 10.3 64 4.0 NNW 41 52 22 28 1025.1 1016.4 0.0
14/02:30am 16.7 10.3 10.8 68 3.5 NNW 35 43 19 23 1025.7 1017.1 0.0
14/02:00am 17.4 10.6 10.5 64 4.0 NNW 37 46 20 25 1026.2 1017.6 0.0
14/01:30am 16.7 11.4 11.2 70 3.3 NNW 30 35 16 19 1026.7 1018.1 0.0
14/01:00am 16.3 12.0 11.9 75 2.6 NNW 26 30 14 16 1027.0 1018.5 0.0
14/12:30am 16.2 12.8 12.6 79 2.2 NNW 22 28 12 15 1027.4 1018.8 0.0
14/12:00am 14.9 12.0 12.9 88 1.2 NNW 20 26 11 14 1027.5 1019.0 0.0
 
Date/Time
EDT
Temp
°C
App
Temp
°C
Dew
Point
°C
Rel
Hum
%
Delta-T
°C
Wind Press
QNH
hPa
Press
MSL
hPa
Rain since
9am
mm
Dir  Spd
km/h
Gust
km/h
Spd
kts
Gust
kts
13/11:30pm 12.9 10.0 12.4 97 0.3 N 19 22 10 12 1027.6 1019.1 0.0
13/11:00pm 11.7 8.3 11.4 98 0.2 NNW 20 24 11 13 1027.7 1019.2 0.0
13/10:30pm 11.9 8.2 11.6 98 0.2 N 22 24 12 13 1027.9 1019.3 0.0
13/10:00pm 12.2 9.0 11.9 98 0.2 NNW 20 24 11 13 1027.9 1019.3 0.0
13/09:30pm 12.4 8.5 12.1 98 0.2 NNW 24 30 13 16 1027.7 1019.2 0.0
13/09:00pm 12.2 11.7 11.9 98 0.2 ENE 6 11 3 6 1028.1 1019.6 0.0
13/08:30pm 12.5 10.7 12.2 98 0.2 ENE 13 19 7 10 1028.0 1019.5 0.0
13/08:00pm 13.0 11.0 12.7 98 0.2 ENE 15 19 8 10 1027.6 1019.1 0.0
13/07:30pm 13.7 11.8 12.9 95 0.5 ENE 15 20 8 11 1027.5 1019.0 0.0
13/07:00pm 14.8 12.8 12.8 88 1.2 ENE 15 24 8 13 1027.4 1018.8 0.0
13/06:30pm 15.7 13.8 13.0 84 1.6 E 15 22 8 12 1027.4 1018.8 0.0
13/06:00pm 16.8 14.0 12.7 77 2.5 ENE 19 28 10 15 1027.3 1018.7 0.0
13/05:30pm 17.9 15.4 12.4 70 3.4 E 17 26 9 14 1027.3 1018.7 0.0
13/05:00pm 20.7 19.9 11.1 54 5.8 ENE 6 20 3 11 1027.6 1019.1 0.0
13/04:30pm 21.6 17.8 11.0 51 6.4 NNW 22 37 12 20 1027.4 1018.8 0.0
13/04:00pm 21.7 18.6 12.3 55 5.8 NW 20 35 11 19 1028.0 1019.5 0.0
13/03:30pm 21.4 18.3 12.3 56 5.6 NW 20 32 11 17 1028.0 1019.5 0.0
13/03:00pm 20.8 17.8 12.5 59 5.1 NW 20 33 11 18 1028.2 1019.7 0.0
13/02:43pm 21.3 16.7 12.2 56 5.6 NNW 28 46 15 25 1028.0 1019.5 0.0
13/02:30pm 21.0 16.7 11.9 56 5.6 NW 26 41 14 22 1028.2 1019.7 0.0
13/02:00pm 21.1 15.6 11.7 55 5.7 NW 32 52 17 28 1028.1 1019.6 0.0
13/01:30pm 20.2 13.9 11.1 56 5.5 NNW 35 56 19 30 1028.0 1019.5 0.0
13/01:24pm 20.9 14.6 11.0 53 6.0 NNW 35 56 19 30 1027.7 1019.2 0.0

Latest Capital City Observations: Canberra | Sydney | Melbourne | Brisbane | Adelaide | Perth | Hobart | Darwin

Other Formats:

Comma delimited format used in spreadsheet applications
http://www.bom.gov.au/fwo/IDN60903/IDN60903.95909.axf

JavaScript Object Notation format (JSON) in row-major order
http://www.bom.gov.au/fwo/IDN60903/IDN60903.95909.json